sensor_id;sensor_type;location;lat;lon;timestamp;P1;durP1;ratioP1;P2;durP2;ratioP2
4601;SDS011;2313;48.552;9.370;2023-07-16T00:01:31;8.13;;;6.23;;
4601;SDS011;2313;48.552;9.370;2023-07-16T00:03:56;7.87;;;6.47;;
4601;SDS011;2313;48.552;9.370;2023-07-16T00:06:22;9.40;;;6.70;;
4601;SDS011;2313;48.552;9.370;2023-07-16T00:08:47;10.10;;;6.77;;
4601;SDS011;2313;48.552;9.370;2023-07-16T00:11:13;8.60;;;6.10;;
4601;SDS011;2313;48.552;9.370;2023-07-16T00:13:38;13.07;;;6.43;;
4601;SDS011;2313;48.552;9.370;2023-07-16T00:16:06;17.00;;;7.17;;
4601;SDS011;2313;48.552;9.370;2023-07-16T00:18:32;20.87;;;7.53;;
4601;SDS011;2313;48.552;9.370;2023-07-16T00:20:57;8.23;;;4.13;;
4601;SDS011;2313;48.552;9.370;2023-07-16T00:23:23;5.53;;;2.87;;
4601;SDS011;2313;48.552;9.370;2023-07-16T00:25:48;15.60;;;3.37;;
4601;SDS011;2313;48.552;9.370;2023-07-16T00:28:14;5.47;;;3.07;;
4601;SDS011;2313;48.552;9.370;2023-07-16T00:30:40;3.43;;;2.30;;
4601;SDS011;2313;48.552;9.370;2023-07-16T00:33:05;3.23;;;2.20;;
4601;SDS011;2313;48.552;9.370;2023-07-16T00:35:31;5.00;;;1.90;;
4601;SDS011;2313;48.552;9.370;2023-07-16T00:37:57;2.13;;;1.70;;
4601;SDS011;2313;48.552;9.370;2023-07-16T00:40:22;2.73;;;1.97;;
4601;SDS011;2313;48.552;9.370;2023-07-16T00:42:48;3.23;;;1.70;;
4601;SDS011;2313;48.552;9.370;2023-07-16T00:45:13;3.07;;;1.50;;
4601;SDS011;2313;48.552;9.370;2023-07-16T00:47:40;3.87;;;1.80;;
4601;SDS011;2313;48.552;9.370;2023-07-16T00:50:07;12.53;;;2.77;;
4601;SDS011;2313;48.552;9.370;2023-07-16T00:52:35;15.10;;;2.17;;
4601;SDS011;2313;48.552;9.370;2023-07-16T00:55:00;3.17;;;1.50;;
4601;SDS011;2313;48.552;9.370;2023-07-16T00:57:26;4.50;;;2.13;;
4601;SDS011;2313;48.552;9.370;2023-07-16T00:59:52;2.83;;;2.00;;
4601;SDS011;2313;48.552;9.370;2023-07-16T01:02:18;6.30;;;1.80;;
4601;SDS011;2313;48.552;9.370;2023-07-16T01:04:43;2.67;;;1.70;;
4601;SDS011;2313;48.552;9.370;2023-07-16T01:07:10;4.57;;;1.90;;
4601;SDS011;2313;48.552;9.370;2023-07-16T01:09:40;1.80;;;1.70;;
4601;SDS011;2313;48.552;9.370;2023-07-16T01:12:07;2.40;;;2.10;;
4601;SDS011;2313;48.552;9.370;2023-07-16T01:14:34;3.47;;;1.67;;
4601;SDS011;2313;48.552;9.370;2023-07-16T01:17:04;2.83;;;2.10;;
4601;SDS011;2313;48.552;9.370;2023-07-16T01:19:31;2.10;;;1.77;;
4601;SDS011;2313;48.552;9.370;2023-07-16T01:27:14;3.90;;;2.03;;
4601;SDS011;2313;48.552;9.370;2023-07-16T01:30:15;2.57;;;1.70;;
4601;SDS011;2313;48.552;9.370;2023-07-16T01:32:43;4.47;;;1.60;;
4601;SDS011;2313;48.552;9.370;2023-07-16T01:35:11;3.27;;;1.83;;
4601;SDS011;2313;48.552;9.370;2023-07-16T01:37:38;1.50;;;1.40;;
4601;SDS011;2313;48.552;9.370;2023-07-16T01:40:06;3.77;;;1.80;;
4601;SDS011;2313;48.552;9.370;2023-07-16T01:42:34;2.20;;;1.67;;
4601;SDS011;2313;48.552;9.370;2023-07-16T01:44:59;2.00;;;1.20;;
4601;SDS011;2313;48.552;9.370;2023-07-16T01:49:53;2.30;;;1.27;;
4601;SDS011;2313;48.552;9.370;2023-07-16T01:52:19;2.50;;;1.03;;
4601;SDS011;2313;48.552;9.370;2023-07-16T01:54:45;1.20;;;1.10;;
4601;SDS011;2313;48.552;9.370;2023-07-16T01:57:10;1.63;;;1.40;;
4601;SDS011;2313;48.552;9.370;2023-07-16T01:59:36;1.60;;;1.50;;
4601;SDS011;2313;48.552;9.370;2023-07-16T02:02:01;1.50;;;1.40;;
4601;SDS011;2313;48.552;9.370;2023-07-16T02:04:27;2.50;;;1.60;;
4601;SDS011;2313;48.552;9.370;2023-07-16T02:06:53;2.30;;;1.30;;
4601;SDS011;2313;48.552;9.370;2023-07-16T02:09:18;7.73;;;1.60;;
4601;SDS011;2313;48.552;9.370;2023-07-16T02:11:44;3.10;;;1.13;;
4601;SDS011;2313;48.552;9.370;2023-07-16T02:14:10;1.20;;;1.10;;
4601;SDS011;2313;48.552;9.370;2023-07-16T02:16:36;2.57;;;1.30;;
4601;SDS011;2313;48.552;9.370;2023-07-16T02:19:02;2.40;;;1.20;;
4601;SDS011;2313;48.552;9.370;2023-07-16T02:21:27;4.50;;;1.10;;
4601;SDS011;2313;48.552;9.370;2023-07-16T02:23:53;2.90;;;1.27;;
4601;SDS011;2313;48.552;9.370;2023-07-16T02:26:18;1.57;;;0.87;;
4601;SDS011;2313;48.552;9.370;2023-07-16T02:28:44;6.80;;;1.13;;
4601;SDS011;2313;48.552;9.370;2023-07-16T02:31:09;2.10;;;1.33;;
4601;SDS011;2313;48.552;9.370;2023-07-16T02:33:35;1.60;;;1.30;;
4601;SDS011;2313;48.552;9.370;2023-07-16T02:36:01;1.20;;;1.10;;
4601;SDS011;2313;48.552;9.370;2023-07-16T02:38:26;2.77;;;1.50;;
4601;SDS011;2313;48.552;9.370;2023-07-16T02:40:52;1.23;;;1.10;;
4601;SDS011;2313;48.552;9.370;2023-07-16T02:43:17;5.83;;;1.43;;
4601;SDS011;2313;48.552;9.370;2023-07-16T02:45:43;3.50;;;1.30;;
4601;SDS011;2313;48.552;9.370;2023-07-16T02:48:08;4.30;;;1.40;;
4601;SDS011;2313;48.552;9.370;2023-07-16T02:50:34;1.80;;;1.27;;
4601;SDS011;2313;48.552;9.370;2023-07-16T02:53:01;1.63;;;1.53;;
4601;SDS011;2313;48.552;9.370;2023-07-16T02:55:27;1.30;;;1.20;;
4601;SDS011;2313;48.552;9.370;2023-07-16T02:57:52;3.50;;;1.50;;
4601;SDS011;2313;48.552;9.370;2023-07-16T03:00:18;1.87;;;1.10;;
4601;SDS011;2313;48.552;9.370;2023-07-16T03:02:44;3.13;;;1.63;;
4601;SDS011;2313;48.552;9.370;2023-07-16T03:05:09;3.53;;;1.40;;
4601;SDS011;2313;48.552;9.370;2023-07-16T03:07:35;1.47;;;1.37;;
4601;SDS011;2313;48.552;9.370;2023-07-16T03:10:00;4.10;;;1.37;;
4601;SDS011;2313;48.552;9.370;2023-07-16T03:12:26;2.07;;;1.60;;
4601;SDS011;2313;48.552;9.370;2023-07-16T03:14:51;1.20;;;1.10;;
4601;SDS011;2313;48.552;9.370;2023-07-16T03:17:19;1.90;;;1.70;;
4601;SDS011;2313;48.552;9.370;2023-07-16T03:19:46;1.83;;;1.70;;
4601;SDS011;2313;48.552;9.370;2023-07-16T03:22:11;2.07;;;1.20;;
4601;SDS011;2313;48.552;9.370;2023-07-16T03:24:37;5.03;;;1.30;;
4601;SDS011;2313;48.552;9.370;2023-07-16T03:27:03;9.97;;;1.60;;
4601;SDS011;2313;48.552;9.370;2023-07-16T03:29:28;2.30;;;1.47;;
4601;SDS011;2313;48.552;9.370;2023-07-16T03:31:54;1.83;;;1.50;;
4601;SDS011;2313;48.552;9.370;2023-07-16T03:34:19;7.23;;;1.77;;
4601;SDS011;2313;48.552;9.370;2023-07-16T03:36:45;1.93;;;1.53;;
4601;SDS011;2313;48.552;9.370;2023-07-16T03:39:11;1.90;;;1.73;;
4601;SDS011;2313;48.552;9.370;2023-07-16T03:41:36;1.60;;;1.30;;
4601;SDS011;2313;48.552;9.370;2023-07-16T03:44:02;2.13;;;1.90;;
4601;SDS011;2313;48.552;9.370;2023-07-16T03:46:27;2.13;;;1.67;;
4601;SDS011;2313;48.552;9.370;2023-07-16T03:48:53;2.60;;;1.10;;
4601;SDS011;2313;48.552;9.370;2023-07-16T03:51:19;3.23;;;1.43;;
4601;SDS011;2313;48.552;9.370;2023-07-16T03:53:44;4.13;;;2.23;;
4601;SDS011;2313;48.552;9.370;2023-07-16T03:56:10;4.67;;;1.63;;
4601;SDS011;2313;48.552;9.370;2023-07-16T03:58:36;9.70;;;1.70;;
4601;SDS011;2313;48.552;9.370;2023-07-16T04:01:01;2.03;;;1.83;;
4601;SDS011;2313;48.552;9.370;2023-07-16T04:03:27;2.80;;;1.23;;
4601;SDS011;2313;48.552;9.370;2023-07-16T04:06:00;2.07;;;1.40;;
4601;SDS011;2313;48.552;9.370;2023-07-16T04:08:29;6.00;;;1.77;;
4601;SDS011;2313;48.552;9.370;2023-07-16T04:10:55;2.03;;;1.50;;
4601;SDS011;2313;48.552;9.370;2023-07-16T04:13:20;3.70;;;1.30;;
4601;SDS011;2313;48.552;9.370;2023-07-16T04:15:46;2.70;;;1.40;;
4601;SDS011;2313;48.552;9.370;2023-07-16T04:18:11;2.80;;;1.73;;
4601;SDS011;2313;48.552;9.370;2023-07-16T04:20:37;2.10;;;1.57;;
4601;SDS011;2313;48.552;9.370;2023-07-16T04:23:02;1.40;;;1.07;;
4601;SDS011;2313;48.552;9.370;2023-07-16T04:25:28;4.03;;;1.50;;
4601;SDS011;2313;48.552;9.370;2023-07-16T04:27:54;2.73;;;1.60;;
4601;SDS011;2313;48.552;9.370;2023-07-16T04:30:21;1.90;;;1.57;;
4601;SDS011;2313;48.552;9.370;2023-07-16T04:32:47;1.40;;;1.13;;
4601;SDS011;2313;48.552;9.370;2023-07-16T04:35:13;1.73;;;1.63;;
4601;SDS011;2313;48.552;9.370;2023-07-16T04:37:39;4.60;;;1.63;;
4601;SDS011;2313;48.552;9.370;2023-07-16T04:40:05;2.47;;;1.30;;
4601;SDS011;2313;48.552;9.370;2023-07-16T04:42:31;2.20;;;1.47;;
4601;SDS011;2313;48.552;9.370;2023-07-16T04:44:56;1.57;;;1.20;;
4601;SDS011;2313;48.552;9.370;2023-07-16T04:47:22;1.77;;;1.57;;
4601;SDS011;2313;48.552;9.370;2023-07-16T04:49:48;5.10;;;1.70;;
4601;SDS011;2313;48.552;9.370;2023-07-16T04:52:13;2.50;;;1.70;;
4601;SDS011;2313;48.552;9.370;2023-07-16T04:54:39;7.00;;;1.70;;
4601;SDS011;2313;48.552;9.370;2023-07-16T04:57:07;1.83;;;1.30;;
4601;SDS011;2313;48.552;9.370;2023-07-16T04:59:33;2.67;;;1.60;;
4601;SDS011;2313;48.552;9.370;2023-07-16T05:01:59;1.83;;;1.50;;
4601;SDS011;2313;48.552;9.370;2023-07-16T05:04:26;2.33;;;1.33;;
4601;SDS011;2313;48.552;9.370;2023-07-16T05:06:52;1.53;;;1.43;;
4601;SDS011;2313;48.552;9.370;2023-07-16T05:09:18;3.13;;;1.33;;
4601;SDS011;2313;48.552;9.370;2023-07-16T05:11:45;1.37;;;1.20;;
4601;SDS011;2313;48.552;9.370;2023-07-16T05:14:10;6.13;;;1.53;;
4601;SDS011;2313;48.552;9.370;2023-07-16T05:16:36;3.30;;;1.60;;
4601;SDS011;2313;48.552;9.370;2023-07-16T05:19:02;3.03;;;1.70;;
4601;SDS011;2313;48.552;9.370;2023-07-16T05:21:27;3.10;;;1.40;;
4601;SDS011;2313;48.552;9.370;2023-07-16T05:23:53;4.60;;;1.63;;
4601;SDS011;2313;48.552;9.370;2023-07-16T05:26:18;1.97;;;1.50;;
4601;SDS011;2313;48.552;9.370;2023-07-16T05:28:44;10.20;;;1.47;;
4601;SDS011;2313;48.552;9.370;2023-07-16T05:31:09;7.23;;;1.87;;
4601;SDS011;2313;48.552;9.370;2023-07-16T05:33:35;9.90;;;2.23;;
4601;SDS011;2313;48.552;9.370;2023-07-16T05:36:01;3.13;;;1.63;;
4601;SDS011;2313;48.552;9.370;2023-07-16T05:38:26;1.50;;;1.30;;
4601;SDS011;2313;48.552;9.370;2023-07-16T05:40:52;2.50;;;1.60;;
4601;SDS011;2313;48.552;9.370;2023-07-16T05:43:17;4.20;;;1.90;;
4601;SDS011;2313;48.552;9.370;2023-07-16T05:45:43;5.13;;;1.40;;
4601;SDS011;2313;48.552;9.370;2023-07-16T05:48:09;1.73;;;1.20;;
4601;SDS011;2313;48.552;9.370;2023-07-16T05:50:34;3.37;;;1.97;;
4601;SDS011;2313;48.552;9.370;2023-07-16T05:53:00;3.20;;;2.23;;
4601;SDS011;2313;48.552;9.370;2023-07-16T05:55:26;3.60;;;1.93;;
4601;SDS011;2313;48.552;9.370;2023-07-16T05:57:51;2.53;;;1.70;;
4601;SDS011;2313;48.552;9.370;2023-07-16T06:00:17;3.93;;;1.70;;
4601;SDS011;2313;48.552;9.370;2023-07-16T06:02:42;2.03;;;1.30;;
4601;SDS011;2313;48.552;9.370;2023-07-16T06:05:08;2.60;;;1.30;;
4601;SDS011;2313;48.552;9.370;2023-07-16T06:07:34;4.27;;;2.07;;
4601;SDS011;2313;48.552;9.370;2023-07-16T06:10:00;3.43;;;1.73;;
4601;SDS011;2313;48.552;9.370;2023-07-16T06:12:25;1.57;;;1.30;;
4601;SDS011;2313;48.552;9.370;2023-07-16T06:14:51;1.90;;;1.27;;
4601;SDS011;2313;48.552;9.370;2023-07-16T06:17:17;6.10;;;1.77;;
4601;SDS011;2313;48.552;9.370;2023-07-16T06:19:42;1.40;;;1.30;;
4601;SDS011;2313;48.552;9.370;2023-07-16T06:22:08;8.20;;;2.07;;
4601;SDS011;2313;48.552;9.370;2023-07-16T06:24:34;5.30;;;2.47;;
4601;SDS011;2313;48.552;9.370;2023-07-16T06:27:00;1.80;;;1.57;;
4601;SDS011;2313;48.552;9.370;2023-07-16T06:29:25;3.00;;;1.87;;
4601;SDS011;2313;48.552;9.370;2023-07-16T06:31:57;5.07;;;1.70;;
4601;SDS011;2313;48.552;9.370;2023-07-16T06:34:26;2.23;;;1.50;;
4601;SDS011;2313;48.552;9.370;2023-07-16T06:36:52;4.10;;;1.63;;
4601;SDS011;2313;48.552;9.370;2023-07-16T06:39:18;4.20;;;1.97;;
4601;SDS011;2313;48.552;9.370;2023-07-16T06:41:43;4.80;;;1.53;;
4601;SDS011;2313;48.552;9.370;2023-07-16T06:44:09;8.70;;;2.47;;
4601;SDS011;2313;48.552;9.370;2023-07-16T06:46:34;4.47;;;1.57;;
4601;SDS011;2313;48.552;9.370;2023-07-16T06:49:00;5.40;;;1.83;;
4601;SDS011;2313;48.552;9.370;2023-07-16T06:51:26;5.23;;;1.70;;
4601;SDS011;2313;48.552;9.370;2023-07-16T06:53:53;11.13;;;2.13;;
4601;SDS011;2313;48.552;9.370;2023-07-16T06:56:19;3.47;;;1.50;;
4601;SDS011;2313;48.552;9.370;2023-07-16T06:58:44;3.87;;;1.23;;
4601;SDS011;2313;48.552;9.370;2023-07-16T07:01:10;4.60;;;1.97;;
4601;SDS011;2313;48.552;9.370;2023-07-16T07:03:35;3.93;;;1.57;;
4601;SDS011;2313;48.552;9.370;2023-07-16T07:06:02;9.53;;;2.10;;
4601;SDS011;2313;48.552;9.370;2023-07-16T07:08:28;18.57;;;1.77;;
4601;SDS011;2313;48.552;9.370;2023-07-16T07:10:54;6.37;;;1.90;;
4601;SDS011;2313;48.552;9.370;2023-07-16T07:13:20;8.17;;;1.83;;
4601;SDS011;2313;48.552;9.370;2023-07-16T07:15:45;2.53;;;1.57;;
4601;SDS011;2313;48.552;9.370;2023-07-16T07:18:11;5.90;;;2.07;;
4601;SDS011;2313;48.552;9.370;2023-07-16T07:20:36;4.83;;;1.90;;
4601;SDS011;2313;48.552;9.370;2023-07-16T07:23:02;1.77;;;1.50;;
4601;SDS011;2313;48.552;9.370;2023-07-16T07:25:30;4.03;;;1.87;;
4601;SDS011;2313;48.552;9.370;2023-07-16T07:27:55;4.50;;;1.83;;
4601;SDS011;2313;48.552;9.370;2023-07-16T07:30:21;7.43;;;1.43;;
4601;SDS011;2313;48.552;9.370;2023-07-16T07:32:47;6.50;;;2.00;;
4601;SDS011;2313;48.552;9.370;2023-07-16T07:35:12;2.83;;;1.60;;
4601;SDS011;2313;48.552;9.370;2023-07-16T07:37:38;3.97;;;2.10;;
4601;SDS011;2313;48.552;9.370;2023-07-16T07:40:03;9.10;;;1.70;;
4601;SDS011;2313;48.552;9.370;2023-07-16T07:42:30;2.50;;;1.70;;
4601;SDS011;2313;48.552;9.370;2023-07-16T07:44:55;2.93;;;1.33;;
4601;SDS011;2313;48.552;9.370;2023-07-16T07:47:21;2.17;;;1.37;;
4601;SDS011;2313;48.552;9.370;2023-07-16T07:49:46;4.60;;;2.13;;
4601;SDS011;2313;48.552;9.370;2023-07-16T07:52:12;7.63;;;1.83;;
4601;SDS011;2313;48.552;9.370;2023-07-16T07:54:38;3.40;;;1.40;;
4601;SDS011;2313;48.552;9.370;2023-07-16T07:57:04;3.63;;;1.80;;
4601;SDS011;2313;48.552;9.370;2023-07-16T07:59:30;3.57;;;1.77;;
4601;SDS011;2313;48.552;9.370;2023-07-16T08:01:57;3.20;;;2.13;;
4601;SDS011;2313;48.552;9.370;2023-07-16T08:04:23;7.50;;;1.57;;
4601;SDS011;2313;48.552;9.370;2023-07-16T08:06:50;2.17;;;1.80;;
4601;SDS011;2313;48.552;9.370;2023-07-16T08:09:16;5.90;;;1.40;;
4601;SDS011;2313;48.552;9.370;2023-07-16T08:11:41;1.97;;;1.57;;
4601;SDS011;2313;48.552;9.370;2023-07-16T08:14:07;6.47;;;2.03;;
4601;SDS011;2313;48.552;9.370;2023-07-16T08:16:32;3.50;;;1.87;;
4601;SDS011;2313;48.552;9.370;2023-07-16T08:18:58;2.00;;;1.57;;
4601;SDS011;2313;48.552;9.370;2023-07-16T08:21:24;4.37;;;1.87;;
4601;SDS011;2313;48.552;9.370;2023-07-16T08:23:49;4.80;;;1.90;;
4601;SDS011;2313;48.552;9.370;2023-07-16T08:26:18;4.63;;;1.80;;
4601;SDS011;2313;48.552;9.370;2023-07-16T08:28:44;7.97;;;1.60;;
4601;SDS011;2313;48.552;9.370;2023-07-16T08:31:10;3.30;;;2.17;;
4601;SDS011;2313;48.552;9.370;2023-07-16T08:33:37;5.37;;;2.37;;
4601;SDS011;2313;48.552;9.370;2023-07-16T08:36:03;2.60;;;1.50;;
4601;SDS011;2313;48.552;9.370;2023-07-16T08:38:29;2.90;;;1.67;;
4601;SDS011;2313;48.552;9.370;2023-07-16T08:40:55;2.07;;;1.87;;
4601;SDS011;2313;48.552;9.370;2023-07-16T08:43:20;3.37;;;1.40;;
4601;SDS011;2313;48.552;9.370;2023-07-16T08:45:47;7.97;;;2.20;;
4601;SDS011;2313;48.552;9.370;2023-07-16T08:48:14;3.20;;;1.33;;
4601;SDS011;2313;48.552;9.370;2023-07-16T08:50:43;3.33;;;1.37;;
4601;SDS011;2313;48.552;9.370;2023-07-16T08:53:13;3.07;;;1.37;;
4601;SDS011;2313;48.552;9.370;2023-07-16T08:55:41;6.70;;;2.77;;
4601;SDS011;2313;48.552;9.370;2023-07-16T08:58:11;8.43;;;2.90;;
4601;SDS011;2313;48.552;9.370;2023-07-16T09:00:41;5.37;;;1.60;;
4601;SDS011;2313;48.552;9.370;2023-07-16T09:03:10;3.10;;;1.80;;
4601;SDS011;2313;48.552;9.370;2023-07-16T09:05:41;2.70;;;1.90;;
4601;SDS011;2313;48.552;9.370;2023-07-16T09:08:07;5.50;;;2.23;;
4601;SDS011;2313;48.552;9.370;2023-07-16T09:10:33;3.63;;;1.87;;
4601;SDS011;2313;48.552;9.370;2023-07-16T09:12:59;5.07;;;2.03;;
4601;SDS011;2313;48.552;9.370;2023-07-16T09:15:26;4.87;;;1.77;;
4601;SDS011;2313;48.552;9.370;2023-07-16T09:17:53;4.60;;;2.00;;
4601;SDS011;2313;48.552;9.370;2023-07-16T09:20:20;10.87;;;2.40;;
4601;SDS011;2313;48.552;9.370;2023-07-16T09:22:48;5.10;;;2.27;;
4601;SDS011;2313;48.552;9.370;2023-07-16T09:25:14;3.00;;;1.60;;
4601;SDS011;2313;48.552;9.370;2023-07-16T09:27:40;3.30;;;1.93;;
4601;SDS011;2313;48.552;9.370;2023-07-16T09:30:06;4.07;;;2.03;;
4601;SDS011;2313;48.552;9.370;2023-07-16T09:32:39;4.20;;;2.40;;
4601;SDS011;2313;48.552;9.370;2023-07-16T09:35:11;5.17;;;1.97;;
4601;SDS011;2313;48.552;9.370;2023-07-16T09:37:38;3.63;;;1.70;;
4601;SDS011;2313;48.552;9.370;2023-07-16T09:40:08;4.90;;;2.13;;
4601;SDS011;2313;48.552;9.370;2023-07-16T09:42:39;4.60;;;1.60;;
4601;SDS011;2313;48.552;9.370;2023-07-16T09:45:06;3.00;;;2.03;;
4601;SDS011;2313;48.552;9.370;2023-07-16T09:47:35;3.17;;;1.80;;
4601;SDS011;2313;48.552;9.370;2023-07-16T09:50:03;4.03;;;2.10;;
4601;SDS011;2313;48.552;9.370;2023-07-16T09:52:29;4.10;;;1.60;;
4601;SDS011;2313;48.552;9.370;2023-07-16T09:54:57;3.43;;;1.73;;
4601;SDS011;2313;48.552;9.370;2023-07-16T09:57:28;4.90;;;2.10;;
4601;SDS011;2313;48.552;9.370;2023-07-16T10:00:00;4.13;;;1.87;;
4601;SDS011;2313;48.552;9.370;2023-07-16T10:02:30;4.90;;;1.80;;
4601;SDS011;2313;48.552;9.370;2023-07-16T10:05:10;3.80;;;2.33;;
4601;SDS011;2313;48.552;9.370;2023-07-16T10:07:49;3.00;;;1.50;;
4601;SDS011;2313;48.552;9.370;2023-07-16T10:10:16;3.30;;;1.80;;
4601;SDS011;2313;48.552;9.370;2023-07-16T10:12:42;5.70;;;1.93;;
4601;SDS011;2313;48.552;9.370;2023-07-16T10:15:24;3.00;;;1.63;;
4601;SDS011;2313;48.552;9.370;2023-07-16T10:17:51;6.13;;;1.80;;
4601;SDS011;2313;48.552;9.370;2023-07-16T10:20:16;2.63;;;1.33;;
4601;SDS011;2313;48.552;9.370;2023-07-16T10:22:52;2.63;;;1.40;;
4601;SDS011;2313;48.552;9.370;2023-07-16T10:27:44;4.33;;;2.00;;
4601;SDS011;2313;48.552;9.370;2023-07-16T10:30:10;3.60;;;2.07;;
4601;SDS011;2313;48.552;9.370;2023-07-16T10:32:36;3.10;;;1.67;;
4601;SDS011;2313;48.552;9.370;2023-07-16T10:35:03;8.47;;;1.77;;
4601;SDS011;2313;48.552;9.370;2023-07-16T10:37:29;5.53;;;1.97;;
4601;SDS011;2313;48.552;9.370;2023-07-16T10:39:57;7.27;;;2.37;;
4601;SDS011;2313;48.552;9.370;2023-07-16T10:42:24;2.30;;;1.70;;
4601;SDS011;2313;48.552;9.370;2023-07-16T10:44:52;3.93;;;1.70;;
4601;SDS011;2313;48.552;9.370;2023-07-16T10:47:40;3.40;;;1.77;;
4601;SDS011;2313;48.552;9.370;2023-07-16T10:50:20;3.23;;;1.70;;
4601;SDS011;2313;48.552;9.370;2023-07-16T10:52:52;10.13;;;1.80;;
4601;SDS011;2313;48.552;9.370;2023-07-16T10:55:18;2.40;;;1.93;;
4601;SDS011;2313;48.552;9.370;2023-07-16T10:57:46;3.57;;;1.97;;
4601;SDS011;2313;48.552;9.370;2023-07-16T11:00:13;4.77;;;1.70;;
4601;SDS011;2313;48.552;9.370;2023-07-16T11:02:40;2.10;;;1.90;;
4601;SDS011;2313;48.552;9.370;2023-07-16T11:05:09;3.43;;;1.30;;
4601;SDS011;2313;48.552;9.370;2023-07-16T11:07:42;3.40;;;1.70;;
4601;SDS011;2313;48.552;9.370;2023-07-16T11:10:11;2.80;;;1.47;;
4601;SDS011;2313;48.552;9.370;2023-07-16T11:12:37;3.50;;;1.70;;
4601;SDS011;2313;48.552;9.370;2023-07-16T11:15:02;2.67;;;1.60;;
4601;SDS011;2313;48.552;9.370;2023-07-16T11:17:28;4.57;;;1.80;;
4601;SDS011;2313;48.552;9.370;2023-07-16T11:19:54;3.83;;;1.43;;
4601;SDS011;2313;48.552;9.370;2023-07-16T11:22:24;2.50;;;1.90;;
4601;SDS011;2313;48.552;9.370;2023-07-16T11:24:51;4.83;;;1.87;;
4601;SDS011;2313;48.552;9.370;2023-07-16T11:27:18;2.53;;;1.70;;
4601;SDS011;2313;48.552;9.370;2023-07-16T11:29:55;2.90;;;1.60;;
4601;SDS011;2313;48.552;9.370;2023-07-16T11:34:59;2.70;;;2.03;;
4601;SDS011;2313;48.552;9.370;2023-07-16T11:37:33;6.70;;;2.00;;
4601;SDS011;2313;48.552;9.370;2023-07-16T11:40:00;2.20;;;1.87;;
4601;SDS011;2313;48.552;9.370;2023-07-16T11:42:29;3.33;;;1.70;;
4601;SDS011;2313;48.552;9.370;2023-07-16T11:44:56;2.70;;;1.90;;
4601;SDS011;2313;48.552;9.370;2023-07-16T11:47:23;4.70;;;1.70;;
4601;SDS011;2313;48.552;9.370;2023-07-16T11:49:48;4.70;;;2.33;;
4601;SDS011;2313;48.552;9.370;2023-07-16T11:52:14;3.73;;;1.77;;
4601;SDS011;2313;48.552;9.370;2023-07-16T11:54:54;4.97;;;2.07;;
4601;SDS011;2313;48.552;9.370;2023-07-16T11:57:21;1.97;;;1.50;;
4601;SDS011;2313;48.552;9.370;2023-07-16T11:59:47;1.97;;;1.63;;
4601;SDS011;2313;48.552;9.370;2023-07-16T12:02:13;3.97;;;2.00;;
4601;SDS011;2313;48.552;9.370;2023-07-16T12:04:39;3.40;;;1.67;;
4601;SDS011;2313;48.552;9.370;2023-07-16T12:07:05;3.10;;;2.00;;
4601;SDS011;2313;48.552;9.370;2023-07-16T12:09:30;6.30;;;1.63;;
4601;SDS011;2313;48.552;9.370;2023-07-16T12:11:56;3.40;;;2.07;;
4601;SDS011;2313;48.552;9.370;2023-07-16T12:14:22;4.40;;;2.10;;
4601;SDS011;2313;48.552;9.370;2023-07-16T12:16:47;4.03;;;1.47;;
4601;SDS011;2313;48.552;9.370;2023-07-16T12:19:13;2.73;;;1.70;;
4601;SDS011;2313;48.552;9.370;2023-07-16T12:21:39;3.23;;;1.50;;
4601;SDS011;2313;48.552;9.370;2023-07-16T12:24:04;3.47;;;1.80;;
4601;SDS011;2313;48.552;9.370;2023-07-16T12:26:30;6.30;;;1.60;;
4601;SDS011;2313;48.552;9.370;2023-07-16T12:28:56;2.30;;;1.77;;
4601;SDS011;2313;48.552;9.370;2023-07-16T12:31:22;2.70;;;1.70;;
4601;SDS011;2313;48.552;9.370;2023-07-16T12:33:47;5.43;;;2.20;;
4601;SDS011;2313;48.552;9.370;2023-07-16T12:36:13;3.73;;;1.80;;
4601;SDS011;2313;48.552;9.370;2023-07-16T12:38:40;2.47;;;1.53;;
4601;SDS011;2313;48.552;9.370;2023-07-16T12:41:06;9.33;;;1.83;;
4601;SDS011;2313;48.552;9.370;2023-07-16T12:43:32;3.77;;;2.00;;
4601;SDS011;2313;48.552;9.370;2023-07-16T12:46:03;3.13;;;1.80;;
4601;SDS011;2313;48.552;9.370;2023-07-16T12:48:29;2.20;;;2.00;;
4601;SDS011;2313;48.552;9.370;2023-07-16T12:50:55;1.47;;;1.33;;
4601;SDS011;2313;48.552;9.370;2023-07-16T12:53:21;4.17;;;2.00;;
4601;SDS011;2313;48.552;9.370;2023-07-16T12:55:47;3.93;;;1.87;;
4601;SDS011;2313;48.552;9.370;2023-07-16T12:58:13;2.60;;;2.00;;
4601;SDS011;2313;48.552;9.370;2023-07-16T13:00:39;3.10;;;1.93;;
4601;SDS011;2313;48.552;9.370;2023-07-16T13:03:04;3.33;;;2.47;;
4601;SDS011;2313;48.552;9.370;2023-07-16T13:05:30;2.90;;;1.77;;
4601;SDS011;2313;48.552;9.370;2023-07-16T13:07:56;2.93;;;1.70;;
4601;SDS011;2313;48.552;9.370;2023-07-16T13:10:22;4.67;;;1.77;;
4601;SDS011;2313;48.552;9.370;2023-07-16T13:12:48;4.07;;;1.67;;
4601;SDS011;2313;48.552;9.370;2023-07-16T13:15:13;3.03;;;1.83;;
4601;SDS011;2313;48.552;9.370;2023-07-16T13:17:39;2.73;;;1.83;;
4601;SDS011;2313;48.552;9.370;2023-07-16T13:20:05;3.10;;;1.97;;
4601;SDS011;2313;48.552;9.370;2023-07-16T13:22:31;3.10;;;2.27;;
4601;SDS011;2313;48.552;9.370;2023-07-16T13:24:57;2.77;;;1.60;;
4601;SDS011;2313;48.552;9.370;2023-07-16T13:27:24;7.00;;;2.23;;
4601;SDS011;2313;48.552;9.370;2023-07-16T13:29:50;6.20;;;2.00;;
4601;SDS011;2313;48.552;9.370;2023-07-16T13:32:15;5.73;;;2.03;;
4601;SDS011;2313;48.552;9.370;2023-07-16T13:34:41;3.80;;;2.40;;
4601;SDS011;2313;48.552;9.370;2023-07-16T13:37:07;2.20;;;2.10;;
4601;SDS011;2313;48.552;9.370;2023-07-16T13:39:33;3.40;;;2.00;;
4601;SDS011;2313;48.552;9.370;2023-07-16T13:41:58;3.93;;;1.90;;
4601;SDS011;2313;48.552;9.370;2023-07-16T13:44:24;3.80;;;1.90;;
4601;SDS011;2313;48.552;9.370;2023-07-16T13:46:49;3.60;;;1.70;;
4601;SDS011;2313;48.552;9.370;2023-07-16T13:49:15;2.60;;;1.63;;
4601;SDS011;2313;48.552;9.370;2023-07-16T13:51:41;3.00;;;1.60;;
4601;SDS011;2313;48.552;9.370;2023-07-16T13:54:06;4.30;;;2.10;;
4601;SDS011;2313;48.552;9.370;2023-07-16T13:56:32;4.30;;;2.23;;
4601;SDS011;2313;48.552;9.370;2023-07-16T13:58:57;5.40;;;2.03;;
4601;SDS011;2313;48.552;9.370;2023-07-16T14:01:23;2.73;;;1.73;;
4601;SDS011;2313;48.552;9.370;2023-07-16T14:03:49;3.07;;;1.73;;
4601;SDS011;2313;48.552;9.370;2023-07-16T14:06:15;2.90;;;1.30;;
4601;SDS011;2313;48.552;9.370;2023-07-16T14:08:40;5.00;;;2.00;;
4601;SDS011;2313;48.552;9.370;2023-07-16T14:11:06;5.57;;;2.20;;
4601;SDS011;2313;48.552;9.370;2023-07-16T14:13:32;4.27;;;1.93;;
4601;SDS011;2313;48.552;9.370;2023-07-16T14:15:57;4.87;;;2.20;;
4601;SDS011;2313;48.552;9.370;2023-07-16T14:18:23;4.50;;;1.80;;
4601;SDS011;2313;48.552;9.370;2023-07-16T14:20:49;4.90;;;2.13;;
4601;SDS011;2313;48.552;9.370;2023-07-16T14:23:14;2.83;;;2.30;;
4601;SDS011;2313;48.552;9.370;2023-07-16T14:25:40;2.13;;;1.60;;
4601;SDS011;2313;48.552;9.370;2023-07-16T14:28:06;3.90;;;2.53;;
4601;SDS011;2313;48.552;9.370;2023-07-16T14:30:31;7.93;;;2.63;;
4601;SDS011;2313;48.552;9.370;2023-07-16T14:32:57;2.30;;;1.87;;
4601;SDS011;2313;48.552;9.370;2023-07-16T14:35:24;3.13;;;1.97;;
4601;SDS011;2313;48.552;9.370;2023-07-16T14:37:50;2.67;;;1.90;;
4601;SDS011;2313;48.552;9.370;2023-07-16T14:40:15;3.83;;;2.07;;
4601;SDS011;2313;48.552;9.370;2023-07-16T14:42:42;2.30;;;1.73;;
4601;SDS011;2313;48.552;9.370;2023-07-16T14:45:08;4.33;;;2.53;;
4601;SDS011;2313;48.552;9.370;2023-07-16T14:47:34;2.70;;;1.77;;
4601;SDS011;2313;48.552;9.370;2023-07-16T14:50:00;2.50;;;1.90;;
4601;SDS011;2313;48.552;9.370;2023-07-16T14:52:26;4.93;;;2.13;;
4601;SDS011;2313;48.552;9.370;2023-07-16T14:54:51;3.83;;;1.87;;
4601;SDS011;2313;48.552;9.370;2023-07-16T14:57:17;2.73;;;2.37;;
4601;SDS011;2313;48.552;9.370;2023-07-16T14:59:43;2.40;;;2.10;;
4601;SDS011;2313;48.552;9.370;2023-07-16T15:02:08;3.87;;;2.37;;
4601;SDS011;2313;48.552;9.370;2023-07-16T15:04:34;3.30;;;2.37;;
4601;SDS011;2313;48.552;9.370;2023-07-16T15:07:00;4.30;;;2.67;;
4601;SDS011;2313;48.552;9.370;2023-07-16T15:09:26;2.83;;;2.13;;
4601;SDS011;2313;48.552;9.370;2023-07-16T15:11:52;2.10;;;1.60;;
4601;SDS011;2313;48.552;9.370;2023-07-16T15:14:17;7.23;;;2.43;;
4601;SDS011;2313;48.552;9.370;2023-07-16T15:16:43;1.83;;;1.50;;
4601;SDS011;2313;48.552;9.370;2023-07-16T15:19:09;5.87;;;2.43;;
4601;SDS011;2313;48.552;9.370;2023-07-16T15:21:34;3.70;;;2.13;;
4601;SDS011;2313;48.552;9.370;2023-07-16T15:24:06;4.27;;;2.07;;